メインページ
METAR-TAF:

METAR-TAF

空港 :

Bella Bella, ブリティッシュコロンビア州, カナダ

緯度: 52-11-06N, 経度: 128-09-24W, 海抜: 43m

現時点の気象観測

当レポートは38分前の04:00(UTC)に作成
変向風 2kt
気温 1°C
湿度 93%
気圧 1027 hPa
視程: 14.5km
晴天

METAR: CBBC 170400Z AUTO VRB02KT 9SM CLR 01/00 A3032 RMK SLP270

時間: 20:38 (04:38 UTC)

予報

当レポートは3時間59分前の00:39(UTC)に作成
予報は17日の 01時(UTC)から 17日の 06時(UTC)まで有効
変向風 3kt
視程: 10km
高度17000ftの千切れ雲あり

TAF: CBBC 170039Z 1701/1706 VRB03KT P6SM BKN170 RMK FCST BASED ON AUTO OBS. NXT FCST WILL BE ISSUED AT 171345Z

4,000以上の空港の気象観測と天気予報(METAR報とTAF報)

利用可能な観測所は地図上に黄色い丸と赤い丸で示す。

丸の上にカーソルを重ねると観測所名を参照できる。

次にクリックすると気象観測と天気予報を参照できる。

マップの切り替え:黒色「×」印の緑ボタンをクリックして拡大、「-」印の緑ボタンをクリックして縮小、緑色の三角印をクリックして隣りの地図に切り替え


METAR-TAF: